Información del aeropuerto LEMI

Información de pista
Frecuencias del aeropuerto
Radioayudas del aeropuerto
Información meteorológica del aeropuerto y NOTAM
ADDS - METARS form results

(1246 UTC 03 March 2021)
Data provider http://aviationweather.gov/metar/data/
 
METAR text: LEMI 031230Z 09011KT 060V120 9999 BKN022 16/10 Q1028
Conditions at: LEMI (MURCIA , ES) observed 1230 UTC 03 March 2021
Temperature: 16.0°C (61°F)
Dewpoint: 10.0°C (50°F) [RH = 68%]
Pressure (altimeter): 30.35 inches Hg (1028.0 mb)
Winds: from the E (90 degrees) at 13 MPH (11 knots; 5.7 m/s)
Visibility: 6 or more miles (10+ km)
Ceiling: 2200 feet AGL
Clouds: broken clouds at 2200 feet AGL
Weather: no significant weather observed at this time

METAR text: LEMI 031200Z 07013KT 9999 FEW020 BKN025 15/09 Q1029
Conditions at: LEMI (MURCIA , ES) observed 1200 UTC 03 March 2021
Temperature: 15.0°C (59°F)
Dewpoint: 9.0°C (48°F) [RH = 67%]
Pressure (altimeter): 30.38 inches Hg (1029.0 mb)
Winds: from the ENE (70 degrees) at 15 MPH (13 knots; 6.7 m/s)
Visibility: 6 or more miles (10+ km)
Ceiling: 2500 feet AGL
Clouds: few clouds at 2000 feet AGL
broken clouds at 2500 feet AGL
Weather: no significant weather observed at this time